Aeroporto :
LOGIN :

Iscrizione | Disclaimer

   EN    FR    IT 

 










Sommario :    VFR   VFR Marginale   IFR   IFR Intensivo   IFR Molto Intensivo
Visibilità : 
Base nubi : 
>= 8 km
>= 3000ft
5 / 8 km
1000 / 3000 ft
1500m / 5 km
500 / 1000 ft
800 / 1500m
200 / 500 ft
< 800m
< 200 ft
Simboli :   Temporali  Nebbia  Neve Forte  Precipitazioni Forti  Vento > 20 kt
SIGMETs :   Varie  Temporali  Ghiacco  Turbolenza  Onda orograficha  Ceneri Vulcaniche






- Altitudine del aeroporto : 194 ft
- Codice IATA : ANE


LFJR - Angers Marcé

ULTIMO METAR :
  • 191700Z AUTO 28010KT 240V330 9999 VCTS FEW038/// BKN050/// BKN100/// ///CB 23/16 Q1019

METARs OBSOLETI :
  • 191630Z AUTO 29010KT 250V350 9999 BKN040/// BKN047/// BKN150/// ///CB 25/16 Q1018
  • 191600Z AUTO 28007KT 250V310 9999 BKN040 BKN047 BKN078 25/16 Q1018
  • 191530Z AUTO 27014KT 9999 BKN039 BKN049 OVC058 24/17 Q1018
  • 191500Z AUTO 26013KT 240V310 9999 SCT038/// BKN048/// BKN056/// ///CB 25/17 Q1018
  • 191430Z AUTO 26012KT 240V310 9999 BKN037/// BKN047/// BKN054/// ///TCU 24/19 Q1018
  • 191400Z AUTO 24017KT 9999 BKN035/// BKN044/// BKN052/// ///CB 27/17 Q1018

Previsioni scadute.



MetMap, La meteo Aeronautica in un colpo d'occhio ! - Copyright ORBIFLY Dicembre 2007 - Disclaimer

ORBIFLY MET'MAP TEAM :

Programmazione e sviluppo : Alexandra Zaïnal
Concezione : Baudouin d'Aumeries
Supporto tecnico e logistico : Manuel Goepfert
Aiuto : Marc-Olivier Méhu
Aiuto per la traduzione : Arnaldo La Scala




FONTI E CREDITI :

   NOAA